sensor_id;sensor_type;location;lat;lon;timestamp;P1;durP1;ratioP1;P2;durP2;ratioP2
37781;SDS011;23621;50.878;4.584;2023-04-01T00:02:23;3.25;;;1.40;;
37781;SDS011;23621;50.878;4.584;2023-04-01T00:04:50;3.80;;;1.42;;
37781;SDS011;23621;50.878;4.584;2023-04-01T00:07:17;4.03;;;1.50;;
37781;SDS011;23621;50.878;4.584;2023-04-01T00:09:44;2.85;;;1.40;;
37781;SDS011;23621;50.878;4.584;2023-04-01T00:12:11;2.22;;;1.45;;
37781;SDS011;23621;50.878;4.584;2023-04-01T00:14:38;3.20;;;1.80;;
37781;SDS011;23621;50.878;4.584;2023-04-01T00:17:06;3.25;;;1.70;;
37781;SDS011;23621;50.878;4.584;2023-04-01T00:19:33;3.38;;;1.60;;
37781;SDS011;23621;50.878;4.584;2023-04-01T00:22:00;3.78;;;1.95;;
37781;SDS011;23621;50.878;4.584;2023-04-01T00:24:27;2.30;;;1.52;;
37781;SDS011;23621;50.878;4.584;2023-04-01T00:26:54;3.33;;;1.60;;
37781;SDS011;23621;50.878;4.584;2023-04-01T00:29:21;2.40;;;1.00;;
37781;SDS011;23621;50.878;4.584;2023-04-01T00:31:50;2.97;;;1.42;;
37781;SDS011;23621;50.878;4.584;2023-04-01T00:34:17;3.03;;;1.83;;
37781;SDS011;23621;50.878;4.584;2023-04-01T00:36:44;1.85;;;1.40;;
37781;SDS011;23621;50.878;4.584;2023-04-01T00:39:10;2.35;;;1.58;;
37781;SDS011;23621;50.878;4.584;2023-04-01T00:41:37;3.15;;;1.50;;
37781;SDS011;23621;50.878;4.584;2023-04-01T00:44:18;2.63;;;1.60;;
37781;SDS011;23621;50.878;4.584;2023-04-01T00:46:49;3.45;;;1.52;;
37781;SDS011;23621;50.878;4.584;2023-04-01T00:49:17;3.17;;;1.42;;
37781;SDS011;23621;50.878;4.584;2023-04-01T00:51:47;3.03;;;1.45;;
37781;SDS011;23621;50.878;4.584;2023-04-01T00:54:18;1.70;;;1.30;;
37781;SDS011;23621;50.878;4.584;2023-04-01T00:56:54;1.42;;;1.30;;
37781;SDS011;23621;50.878;4.584;2023-04-01T00:59:29;3.70;;;1.48;;
37781;SDS011;23621;50.878;4.584;2023-04-01T01:02:03;2.63;;;1.35;;
37781;SDS011;23621;50.878;4.584;2023-04-01T01:04:34;2.88;;;1.42;;
37781;SDS011;23621;50.878;4.584;2023-04-01T01:10:14;2.83;;;1.40;;
37781;SDS011;23621;50.878;4.584;2023-04-01T01:15:32;2.88;;;1.40;;
37781;SDS011;23621;50.878;4.584;2023-04-01T01:37:00;1.50;;;1.40;;
37781;SDS011;23621;50.878;4.584;2023-04-01T01:39:32;1.52;;;1.30;;
37781;SDS011;23621;50.878;4.584;2023-04-01T01:42:06;1.55;;;1.45;;
37781;SDS011;23621;50.878;4.584;2023-04-01T01:44:36;1.67;;;1.30;;
37781;SDS011;23621;50.878;4.584;2023-04-01T01:47:05;1.58;;;1.20;;
37781;SDS011;23621;50.878;4.584;2023-04-01T01:49:32;1.73;;;1.10;;
37781;SDS011;23621;50.878;4.584;2023-04-01T01:52:01;1.00;;;1.00;;
37781;SDS011;23621;50.878;4.584;2023-04-01T01:54:29;1.15;;;1.02;;
37781;SDS011;23621;50.878;4.584;2023-04-01T01:57:03;1.90;;;1.42;;
37781;SDS011;23621;50.878;4.584;2023-04-01T01:59:33;2.10;;;1.40;;
37781;SDS011;23621;50.878;4.584;2023-04-01T02:02:03;2.83;;;1.30;;
37781;SDS011;23621;50.878;4.584;2023-04-01T02:04:35;1.67;;;1.40;;
37781;SDS011;23621;50.878;4.584;2023-04-01T02:07:10;2.53;;;1.65;;
37781;SDS011;23621;50.878;4.584;2023-04-01T02:09:44;2.80;;;1.48;;
37781;SDS011;23621;50.878;4.584;2023-04-01T02:12:12;3.33;;;1.80;;
37781;SDS011;23621;50.878;4.584;2023-04-01T02:14:43;2.10;;;1.52;;
37781;SDS011;23621;50.878;4.584;2023-04-01T02:17:19;1.70;;;1.60;;
37781;SDS011;23621;50.878;4.584;2023-04-01T02:20:06;2.17;;;1.98;;
37781;SDS011;23621;50.878;4.584;2023-04-01T02:22:37;2.55;;;2.00;;
37781;SDS011;23621;50.878;4.584;2023-04-01T02:25:09;2.50;;;1.92;;
37781;SDS011;23621;50.878;4.584;2023-04-01T02:27:39;2.42;;;2.00;;
37781;SDS011;23621;50.878;4.584;2023-04-01T02:30:09;2.20;;;2.00;;
37781;SDS011;23621;50.878;4.584;2023-04-01T02:32:36;2.30;;;2.10;;
37781;SDS011;23621;50.878;4.584;2023-04-01T02:35:06;2.80;;;2.28;;
37781;SDS011;23621;50.878;4.584;2023-04-01T02:37:37;2.88;;;2.15;;
37781;SDS011;23621;50.878;4.584;2023-04-01T02:40:06;2.78;;;2.20;;
37781;SDS011;23621;50.878;4.584;2023-04-01T02:42:34;2.95;;;2.10;;
37781;SDS011;23621;50.878;4.584;2023-04-01T02:45:02;3.60;;;2.17;;
37781;SDS011;23621;50.878;4.584;2023-04-01T02:47:30;2.22;;;2.00;;
37781;SDS011;23621;50.878;4.584;2023-04-01T02:49:57;2.78;;;1.92;;
37781;SDS011;23621;50.878;4.584;2023-04-01T02:52:25;2.42;;;1.98;;
37781;SDS011;23621;50.878;4.584;2023-04-01T02:54:52;4.68;;;2.30;;
37781;SDS011;23621;50.878;4.584;2023-04-01T02:57:19;3.72;;;1.98;;
37781;SDS011;23621;50.878;4.584;2023-04-01T02:59:47;3.15;;;1.98;;
37781;SDS011;23621;50.878;4.584;2023-04-01T03:02:14;3.40;;;1.58;;
37781;SDS011;23621;50.878;4.584;2023-04-01T03:04:42;4.65;;;1.70;;
37781;SDS011;23621;50.878;4.584;2023-04-01T03:07:09;2.88;;;2.00;;
37781;SDS011;23621;50.878;4.584;2023-04-01T03:09:37;4.25;;;2.05;;
37781;SDS011;23621;50.878;4.584;2023-04-01T03:12:05;5.55;;;2.05;;
37781;SDS011;23621;50.878;4.584;2023-04-01T03:14:32;3.22;;;2.15;;
37781;SDS011;23621;50.878;4.584;2023-04-01T03:16:59;2.47;;;1.90;;
37781;SDS011;23621;50.878;4.584;2023-04-01T03:19:27;3.78;;;2.17;;
37781;SDS011;23621;50.878;4.584;2023-04-01T03:21:53;4.78;;;2.25;;
37781;SDS011;23621;50.878;4.584;2023-04-01T03:24:20;3.85;;;2.53;;
37781;SDS011;23621;50.878;4.584;2023-04-01T03:26:47;5.05;;;2.50;;
37781;SDS011;23621;50.878;4.584;2023-04-01T03:29:14;5.35;;;2.20;;
37781;SDS011;23621;50.878;4.584;2023-04-01T03:31:42;3.35;;;2.40;;
37781;SDS011;23621;50.878;4.584;2023-04-01T03:34:09;2.15;;;1.85;;
37781;SDS011;23621;50.878;4.584;2023-04-01T03:36:36;5.15;;;2.22;;
37781;SDS011;23621;50.878;4.584;2023-04-01T03:39:04;4.95;;;2.72;;
37781;SDS011;23621;50.878;4.584;2023-04-01T03:41:31;3.83;;;2.42;;
37781;SDS011;23621;50.878;4.584;2023-04-01T03:43:59;5.22;;;2.83;;
37781;SDS011;23621;50.878;4.584;2023-04-01T03:46:26;5.13;;;3.05;;
37781;SDS011;23621;50.878;4.584;2023-04-01T03:48:53;4.03;;;2.90;;
37781;SDS011;23621;50.878;4.584;2023-04-01T03:51:19;6.45;;;3.25;;
37781;SDS011;23621;50.878;4.584;2023-04-01T03:53:46;7.22;;;3.75;;
37781;SDS011;23621;50.878;4.584;2023-04-01T03:56:13;6.35;;;3.60;;
37781;SDS011;23621;50.878;4.584;2023-04-01T03:58:40;5.60;;;3.45;;
37781;SDS011;23621;50.878;4.584;2023-04-01T04:01:18;7.75;;;3.38;;
37781;SDS011;23621;50.878;4.584;2023-04-01T04:03:47;6.35;;;3.70;;
37781;SDS011;23621;50.878;4.584;2023-04-01T04:06:16;8.25;;;4.20;;
37781;SDS011;23621;50.878;4.584;2023-04-01T04:08:44;5.43;;;3.97;;
37781;SDS011;23621;50.878;4.584;2023-04-01T04:11:11;6.43;;;3.75;;
37781;SDS011;23621;50.878;4.584;2023-04-01T04:13:38;9.05;;;4.30;;
37781;SDS011;23621;50.878;4.584;2023-04-01T04:16:05;8.75;;;4.05;;
37781;SDS011;23621;50.878;4.584;2023-04-01T04:18:33;6.75;;;3.95;;
37781;SDS011;23621;50.878;4.584;2023-04-01T04:21:00;6.28;;;4.00;;
37781;SDS011;23621;50.878;4.584;2023-04-01T04:23:27;7.07;;;4.10;;
37781;SDS011;23621;50.878;4.584;2023-04-01T04:26:00;5.05;;;3.33;;
37781;SDS011;23621;50.878;4.584;2023-04-01T04:28:28;4.53;;;3.33;;
37781;SDS011;23621;50.878;4.584;2023-04-01T04:30:56;8.85;;;3.65;;
37781;SDS011;23621;50.878;4.584;2023-04-01T04:33:23;4.82;;;3.72;;
37781;SDS011;23621;50.878;4.584;2023-04-01T04:35:51;6.80;;;3.58;;
37781;SDS011;23621;50.878;4.584;2023-04-01T04:38:22;4.80;;;3.50;;
37781;SDS011;23621;50.878;4.584;2023-04-01T04:40:49;6.20;;;3.00;;
37781;SDS011;23621;50.878;4.584;2023-04-01T04:43:16;3.65;;;2.90;;
37781;SDS011;23621;50.878;4.584;2023-04-01T04:45:44;5.22;;;3.10;;
37781;SDS011;23621;50.878;4.584;2023-04-01T04:48:12;3.22;;;2.75;;
37781;SDS011;23621;50.878;4.584;2023-04-01T04:50:45;5.25;;;3.13;;
37781;SDS011;23621;50.878;4.584;2023-04-01T04:53:15;3.45;;;3.10;;
37781;SDS011;23621;50.878;4.584;2023-04-01T04:55:48;4.03;;;2.70;;
37781;SDS011;23621;50.878;4.584;2023-04-01T04:58:16;4.40;;;2.63;;
37781;SDS011;23621;50.878;4.584;2023-04-01T05:00:44;5.57;;;2.40;;
37781;SDS011;23621;50.878;4.584;2023-04-01T05:03:11;3.03;;;2.53;;
37781;SDS011;23621;50.878;4.584;2023-04-01T05:05:39;2.88;;;2.58;;
37781;SDS011;23621;50.878;4.584;2023-04-01T05:08:06;2.33;;;2.10;;
37781;SDS011;23621;50.878;4.584;2023-04-01T05:10:33;2.60;;;1.92;;
37781;SDS011;23621;50.878;4.584;2023-04-01T05:13:00;3.08;;;2.30;;
37781;SDS011;23621;50.878;4.584;2023-04-01T05:15:27;3.55;;;2.38;;
37781;SDS011;23621;50.878;4.584;2023-04-01T05:17:54;2.67;;;2.15;;
37781;SDS011;23621;50.878;4.584;2023-04-01T05:20:21;3.20;;;1.90;;
37781;SDS011;23621;50.878;4.584;2023-04-01T05:22:48;2.50;;;2.22;;
37781;SDS011;23621;50.878;4.584;2023-04-01T05:25:15;3.30;;;2.10;;
37781;SDS011;23621;50.878;4.584;2023-04-01T05:27:42;2.10;;;1.90;;
37781;SDS011;23621;50.878;4.584;2023-04-01T05:30:09;1.98;;;1.60;;
37781;SDS011;23621;50.878;4.584;2023-04-01T05:32:36;1.83;;;1.70;;
37781;SDS011;23621;50.878;4.584;2023-04-01T05:35:03;1.60;;;1.50;;
37781;SDS011;23621;50.878;4.584;2023-04-01T05:37:32;2.35;;;1.55;;
37781;SDS011;23621;50.878;4.584;2023-04-01T05:40:00;2.50;;;1.70;;
37781;SDS011;23621;50.878;4.584;2023-04-01T05:42:28;2.28;;;2.08;;
37781;SDS011;23621;50.878;4.584;2023-04-01T05:44:55;2.17;;;1.98;;
37781;SDS011;23621;50.878;4.584;2023-04-01T05:47:22;2.20;;;2.00;;
37781;SDS011;23621;50.878;4.584;2023-04-01T05:49:49;2.60;;;2.10;;
37781;SDS011;23621;50.878;4.584;2023-04-01T05:52:16;2.25;;;2.05;;
37781;SDS011;23621;50.878;4.584;2023-04-01T05:54:43;3.15;;;2.30;;
37781;SDS011;23621;50.878;4.584;2023-04-01T05:57:09;2.67;;;2.47;;
37781;SDS011;23621;50.878;4.584;2023-04-01T05:59:36;3.40;;;2.60;;
37781;SDS011;23621;50.878;4.584;2023-04-01T06:02:03;4.03;;;2.83;;
37781;SDS011;23621;50.878;4.584;2023-04-01T06:04:34;4.47;;;2.90;;
37781;SDS011;23621;50.878;4.584;2023-04-01T06:07:05;3.50;;;2.92;;
37781;SDS011;23621;50.878;4.584;2023-04-01T06:09:41;6.00;;;3.65;;
37781;SDS011;23621;50.878;4.584;2023-04-01T06:17:36;4.28;;;3.33;;
37781;SDS011;23621;50.878;4.584;2023-04-01T06:22:48;6.43;;;3.80;;
37781;SDS011;23621;50.878;4.584;2023-04-01T06:45:28;5.05;;;4.00;;
37781;SDS011;23621;50.878;4.584;2023-04-01T06:50:40;5.20;;;3.90;;
37781;SDS011;23621;50.878;4.584;2023-04-01T06:55:47;5.82;;;3.88;;
37781;SDS011;23621;50.878;4.584;2023-04-01T06:58:22;4.75;;;3.63;;
37781;SDS011;23621;50.878;4.584;2023-04-01T07:01:14;4.47;;;3.78;;
37781;SDS011;23621;50.878;4.584;2023-04-01T07:04:10;5.55;;;3.30;;
37781;SDS011;23621;50.878;4.584;2023-04-01T07:06:48;5.00;;;3.33;;
37781;SDS011;23621;50.878;4.584;2023-04-01T07:09:34;4.50;;;3.58;;
37781;SDS011;23621;50.878;4.584;2023-04-01T07:15:16;5.43;;;3.50;;
37781;SDS011;23621;50.878;4.584;2023-04-01T07:17:44;4.47;;;3.53;;
37781;SDS011;23621;50.878;4.584;2023-04-01T07:20:16;4.22;;;3.15;;
37781;SDS011;23621;50.878;4.584;2023-04-01T07:22:58;4.90;;;2.65;;
37781;SDS011;23621;50.878;4.584;2023-04-01T07:25:28;2.60;;;2.38;;
37781;SDS011;23621;50.878;4.584;2023-04-01T07:28:05;2.70;;;2.50;;
37781;SDS011;23621;50.878;4.584;2023-04-01T07:33:48;3.65;;;2.42;;
37781;SDS011;23621;50.878;4.584;2023-04-01T07:39:15;3.72;;;3.20;;
37781;SDS011;23621;50.878;4.584;2023-04-01T07:44:34;2.97;;;2.65;;
37781;SDS011;23621;50.878;4.584;2023-04-01T07:52:48;1.88;;;1.52;;
37781;SDS011;23621;50.878;4.584;2023-04-01T07:55:34;1.63;;;1.50;;
37781;SDS011;23621;50.878;4.584;2023-04-01T08:06:23;0.90;;;0.90;;
37781;SDS011;23621;50.878;4.584;2023-04-01T08:14:47;0.80;;;0.80;;
37781;SDS011;23621;50.878;4.584;2023-04-01T08:17:41;0.90;;;0.90;;
37781;SDS011;23621;50.878;4.584;2023-04-01T08:23:24;2.17;;;1.02;;
37781;SDS011;23621;50.878;4.584;2023-04-01T08:28:40;1.60;;;1.50;;
37781;SDS011;23621;50.878;4.584;2023-04-01T08:31:19;1.48;;;1.38;;
37781;SDS011;23621;50.878;4.584;2023-04-01T08:34:02;1.20;;;1.20;;
37781;SDS011;23621;50.878;4.584;2023-04-01T08:36:36;1.20;;;1.20;;
37781;SDS011;23621;50.878;4.584;2023-04-01T08:39:08;1.35;;;1.15;;
37781;SDS011;23621;50.878;4.584;2023-04-01T09:08:52;1.60;;;1.33;;
37781;SDS011;23621;50.878;4.584;2023-04-01T09:11:44;1.50;;;1.40;;
37781;SDS011;23621;50.878;4.584;2023-04-01T09:23:21;1.20;;;1.20;;
37781;SDS011;23621;50.878;4.584;2023-04-01T09:57:34;1.88;;;1.77;;
37781;SDS011;23621;50.878;4.584;2023-04-01T10:00:16;2.03;;;1.92;;
37781;SDS011;23621;50.878;4.584;2023-04-01T10:46:24;2.67;;;2.17;;
37781;SDS011;23621;50.878;4.584;2023-04-01T10:54:49;2.20;;;2.00;;
37781;SDS011;23621;50.878;4.584;2023-04-01T11:14:18;3.78;;;1.35;;
37781;SDS011;23621;50.878;4.584;2023-04-01T11:23:07;2.40;;;1.35;;
37781;SDS011;23621;50.878;4.584;2023-04-01T11:34:26;1.30;;;1.20;;
37781;SDS011;23621;50.878;4.584;2023-04-01T11:46:10;0.90;;;0.90;;
37781;SDS011;23621;50.878;4.584;2023-04-01T11:48:44;0.93;;;0.93;;
37781;SDS011;23621;50.878;4.584;2023-04-01T11:51:27;1.25;;;1.15;;
37781;SDS011;23621;50.878;4.584;2023-04-01T12:14:16;1.60;;;1.50;;
37781;SDS011;23621;50.878;4.584;2023-04-01T12:16:55;1.38;;;1.30;;
37781;SDS011;23621;50.878;4.584;2023-04-01T12:19:37;1.38;;;1.27;;
37781;SDS011;23621;50.878;4.584;2023-04-01T12:24:52;1.98;;;1.80;;
37781;SDS011;23621;50.878;4.584;2023-04-01T12:27:41;1.90;;;1.70;;
37781;SDS011;23621;50.878;4.584;2023-04-01T12:47:55;1.83;;;1.73;;
37781;SDS011;23621;50.878;4.584;2023-04-01T12:57:03;1.38;;;1.30;;
37781;SDS011;23621;50.878;4.584;2023-04-01T13:25:14;1.83;;;1.48;;
37781;SDS011;23621;50.878;4.584;2023-04-01T13:27:48;1.60;;;1.50;;
37781;SDS011;23621;50.878;4.584;2023-04-01T13:30:38;1.50;;;1.40;;
37781;SDS011;23621;50.878;4.584;2023-04-01T13:33:19;1.33;;;1.23;;
37781;SDS011;23621;50.878;4.584;2023-04-01T13:38:57;1.20;;;1.20;;
37781;SDS011;23621;50.878;4.584;2023-04-01T13:41:55;1.40;;;1.33;;
37781;SDS011;23621;50.878;4.584;2023-04-01T13:47:38;1.30;;;1.30;;
37781;SDS011;23621;50.878;4.584;2023-04-01T13:55:45;1.17;;;1.17;;
37781;SDS011;23621;50.878;4.584;2023-04-01T14:04:53;1.10;;;1.00;;
37781;SDS011;23621;50.878;4.584;2023-04-01T14:18:11;1.40;;;1.30;;
37781;SDS011;23621;50.878;4.584;2023-04-01T14:21:17;3.70;;;1.95;;
37781;SDS011;23621;50.878;4.584;2023-04-01T14:29:34;1.80;;;1.70;;
37781;SDS011;23621;50.878;4.584;2023-04-01T14:34:58;1.60;;;1.50;;
37781;SDS011;23621;50.878;4.584;2023-04-01T14:40:43;1.80;;;1.70;;
37781;SDS011;23621;50.878;4.584;2023-04-01T14:45:59;2.05;;;1.80;;
37781;SDS011;23621;50.878;4.584;2023-04-01T14:48:52;3.42;;;1.60;;
37781;SDS011;23621;50.878;4.584;2023-04-01T14:51:22;1.63;;;1.52;;
37781;SDS011;23621;50.878;4.584;2023-04-01T14:54:02;2.80;;;1.70;;
37781;SDS011;23621;50.878;4.584;2023-04-01T14:57:05;1.92;;;1.70;;
37781;SDS011;23621;50.878;4.584;2023-04-01T14:59:39;1.40;;;1.30;;
37781;SDS011;23621;50.878;4.584;2023-04-01T15:07:58;1.27;;;1.27;;
37781;SDS011;23621;50.878;4.584;2023-04-01T15:18:41;1.80;;;1.70;;
37781;SDS011;23621;50.878;4.584;2023-04-01T15:29:47;2.75;;;1.42;;
37781;SDS011;23621;50.878;4.584;2023-04-01T15:32:49;1.35;;;1.35;;
37781;SDS011;23621;50.878;4.584;2023-04-01T15:35:43;1.48;;;1.38;;
37781;SDS011;23621;50.878;4.584;2023-04-01T15:38:27;1.90;;;1.80;;
37781;SDS011;23621;50.878;4.584;2023-04-01T15:41:14;1.80;;;1.70;;
37781;SDS011;23621;50.878;4.584;2023-04-01T15:43:44;2.22;;;1.95;;
37781;SDS011;23621;50.878;4.584;2023-04-01T15:48:46;1.90;;;1.80;;
37781;SDS011;23621;50.878;4.584;2023-04-01T15:54:24;1.85;;;1.75;;
37781;SDS011;23621;50.878;4.584;2023-04-01T16:05:48;2.53;;;1.70;;
37781;SDS011;23621;50.878;4.584;2023-04-01T16:14:01;2.38;;;2.17;;
37781;SDS011;23621;50.878;4.584;2023-04-01T16:16:53;3.63;;;2.25;;
37781;SDS011;23621;50.878;4.584;2023-04-01T16:19:51;1.60;;;1.50;;
37781;SDS011;23621;50.878;4.584;2023-04-01T16:22:23;1.70;;;1.60;;
37781;SDS011;23621;50.878;4.584;2023-04-01T16:30:57;1.60;;;1.50;;
37781;SDS011;23621;50.878;4.584;2023-04-01T16:37:00;2.50;;;1.63;;
37781;SDS011;23621;50.878;4.584;2023-04-01T16:45:06;2.35;;;1.50;;
37781;SDS011;23621;50.878;4.584;2023-04-01T16:47:58;2.47;;;1.77;;
37781;SDS011;23621;50.878;4.584;2023-04-01T16:50:59;2.35;;;1.73;;
37781;SDS011;23621;50.878;4.584;2023-04-01T16:53:43;1.67;;;1.58;;
37781;SDS011;23621;50.878;4.584;2023-04-01T16:59:03;1.95;;;1.60;;
37781;SDS011;23621;50.878;4.584;2023-04-01T17:01:42;2.00;;;1.80;;
37781;SDS011;23621;50.878;4.584;2023-04-01T17:14:56;1.83;;;1.73;;
37781;SDS011;23621;50.878;4.584;2023-04-01T17:25:49;2.10;;;2.00;;
37781;SDS011;23621;50.878;4.584;2023-04-01T17:28:41;2.40;;;2.20;;
37781;SDS011;23621;50.878;4.584;2023-04-01T18:12:02;2.63;;;2.42;;
37781;SDS011;23621;50.878;4.584;2023-04-01T18:14:50;2.47;;;2.28;;
37781;SDS011;23621;50.878;4.584;2023-04-01T18:25:39;2.60;;;2.40;;
37781;SDS011;23621;50.878;4.584;2023-04-01T18:31:07;3.25;;;3.00;;
37781;SDS011;23621;50.878;4.584;2023-04-01T18:36:42;3.40;;;3.10;;
37781;SDS011;23621;50.878;4.584;2023-04-01T18:39:23;3.60;;;3.30;;
37781;SDS011;23621;50.878;4.584;2023-04-01T18:42:07;4.25;;;3.95;;
37781;SDS011;23621;50.878;4.584;2023-04-01T18:47:30;4.47;;;4.18;;
37781;SDS011;23621;50.878;4.584;2023-04-01T18:50:34;4.25;;;3.92;;
37781;SDS011;23621;50.878;4.584;2023-04-01T18:53:10;5.45;;;4.63;;
37781;SDS011;23621;50.878;4.584;2023-04-01T18:55:42;4.60;;;4.07;;
37781;SDS011;23621;50.878;4.584;2023-04-01T18:58:21;5.25;;;4.40;;
37781;SDS011;23621;50.878;4.584;2023-04-01T19:01:07;5.43;;;4.18;;
37781;SDS011;23621;50.878;4.584;2023-04-01T19:06:57;4.35;;;3.95;;
37781;SDS011;23621;50.878;4.584;2023-04-01T19:17:47;5.68;;;5.18;;
37781;SDS011;23621;50.878;4.584;2023-04-01T19:20:45;5.60;;;5.10;;
37781;SDS011;23621;50.878;4.584;2023-04-01T19:26:14;5.82;;;4.80;;
37781;SDS011;23621;50.878;4.584;2023-04-01T19:43:35;5.78;;;5.18;;
37781;SDS011;23621;50.878;4.584;2023-04-01T20:02:28;6.10;;;5.50;;
37781;SDS011;23621;50.878;4.584;2023-04-01T20:07:55;6.55;;;4.65;;
37781;SDS011;23621;50.878;4.584;2023-04-01T20:13:19;6.70;;;5.18;;
37781;SDS011;23621;50.878;4.584;2023-04-01T20:15:55;7.90;;;5.53;;
37781;SDS011;23621;50.878;4.584;2023-04-01T20:26:41;6.55;;;5.30;;
37781;SDS011;23621;50.878;4.584;2023-04-01T20:34:46;5.75;;;5.15;;
37781;SDS011;23621;50.878;4.584;2023-04-01T20:37:35;8.00;;;5.78;;
37781;SDS011;23621;50.878;4.584;2023-04-01T20:45:34;6.47;;;5.88;;
37781;SDS011;23621;50.878;4.584;2023-04-01T20:51:37;10.82;;;6.80;;
37781;SDS011;23621;50.878;4.584;2023-04-01T21:05:54;10.98;;;8.27;;
37781;SDS011;23621;50.878;4.584;2023-04-01T21:11:13;12.80;;;7.53;;
37781;SDS011;23621;50.878;4.584;2023-04-01T21:16:31;11.07;;;7.55;;
37781;SDS011;23621;50.878;4.584;2023-04-01T21:47:34;10.38;;;7.95;;
37781;SDS011;23621;50.878;4.584;2023-04-01T21:50:46;9.52;;;7.90;;
37781;SDS011;23621;50.878;4.584;2023-04-01T21:56:03;10.15;;;7.63;;
37781;SDS011;23621;50.878;4.584;2023-04-01T22:07:08;5.60;;;5.03;;
37781;SDS011;23621;50.878;4.584;2023-04-01T22:15:21;7.93;;;7.03;;
37781;SDS011;23621;50.878;4.584;2023-04-01T22:17:58;6.78;;;6.07;;
37781;SDS011;23621;50.878;4.584;2023-04-01T22:23:47;6.35;;;5.75;;
37781;SDS011;23621;50.878;4.584;2023-04-01T22:26:31;10.10;;;8.75;;
37781;SDS011;23621;50.878;4.584;2023-04-01T22:32:58;9.77;;;8.02;;
37781;SDS011;23621;50.878;4.584;2023-04-01T22:36:24;9.57;;;8.65;;
37781;SDS011;23621;50.878;4.584;2023-04-01T22:41:33;10.00;;;9.00;;
37781;SDS011;23621;50.878;4.584;2023-04-01T22:44:03;11.88;;;9.77;;
37781;SDS011;23621;50.878;4.584;2023-04-01T22:46:34;10.68;;;9.57;;
37781;SDS011;23621;50.878;4.584;2023-04-01T22:49:32;10.00;;;8.73;;
37781;SDS011;23621;50.878;4.584;2023-04-01T22:54:46;10.30;;;9.20;;
37781;SDS011;23621;50.878;4.584;2023-04-01T22:57:31;8.63;;;7.35;;
37781;SDS011;23621;50.878;4.584;2023-04-01T23:00:35;8.25;;;7.45;;
37781;SDS011;23621;50.878;4.584;2023-04-01T23:05:45;8.45;;;7.55;;
37781;SDS011;23621;50.878;4.584;2023-04-01T23:09:01;7.60;;;6.90;;
37781;SDS011;23621;50.878;4.584;2023-04-01T23:11:16;7.82;;;6.95;;
37781;SDS011;23621;50.878;4.584;2023-04-01T23:13:53;6.82;;;6.20;;
37781;SDS011;23621;50.878;4.584;2023-04-01T23:16:45;7.13;;;6.47;;
37781;SDS011;23621;50.878;4.584;2023-04-01T23:19:25;7.25;;;6.47;;
37781;SDS011;23621;50.878;4.584;2023-04-01T23:28:46;8.70;;;7.63;;
37781;SDS011;23621;50.878;4.584;2023-04-01T23:33:54;9.38;;;8.43;;
37781;SDS011;23621;50.878;4.584;2023-04-01T23:36:26;10.35;;;9.23;;
37781;SDS011;23621;50.878;4.584;2023-04-01T23:38:54;11.32;;;8.90;;
37781;SDS011;23621;50.878;4.584;2023-04-01T23:41:23;10.48;;;9.38;;
37781;SDS011;23621;50.878;4.584;2023-04-01T23:43:58;11.25;;;10.02;;
37781;SDS011;23621;50.878;4.584;2023-04-01T23:46:29;11.43;;;10.10;;
37781;SDS011;23621;50.878;4.584;2023-04-01T23:48:58;12.18;;;10.50;;
37781;SDS011;23621;50.878;4.584;2023-04-01T23:51:27;11.25;;;10.02;;
37781;SDS011;23621;50.878;4.584;2023-04-01T23:54:03;11.68;;;9.90;;
37781;SDS011;23621;50.878;4.584;2023-04-01T23:56:45;11.25;;;10.15;;
37781;SDS011;23621;50.878;4.584;2023-04-01T23:59:27;11.05;;;9.93;;
